createdAt,value
2019-02-22T00:01:29.148Z,18.83
2019-02-22T00:03:56.034Z,23.37
2019-02-22T00:06:22.579Z,21.57
2019-02-22T00:08:49.196Z,18.93
2019-02-22T00:11:15.765Z,20.40
2019-02-22T00:13:42.243Z,22.33
2019-02-22T00:16:08.785Z,16.80
2019-02-22T00:18:35.333Z,20.87
2019-02-22T00:21:01.974Z,21.13
2019-02-22T00:23:28.502Z,19.93
2019-02-22T00:25:55.495Z,22.33
2019-02-22T00:28:22.571Z,17.33
2019-02-22T00:30:50.508Z,21.07
2019-02-22T00:33:16.959Z,21.10
2019-02-22T00:35:43.784Z,19.43
2019-02-22T00:38:10.307Z,15.90
2019-02-22T00:40:36.727Z,20.20
2019-02-22T00:43:03.264Z,15.63
2019-02-22T00:45:29.789Z,19.57
2019-02-22T00:47:56.292Z,19.13
2019-02-22T00:50:22.992Z,18.30
2019-02-22T00:52:49.415Z,20.13
2019-02-22T00:55:16.216Z,20.70
2019-02-22T00:57:43.022Z,20.17
2019-02-22T01:00:09.777Z,20.97
2019-02-22T01:02:36.288Z,18.60
2019-02-22T01:05:03.095Z,20.47
2019-02-22T01:07:30.770Z,20.70
2019-02-22T01:09:59.216Z,19.07
2019-02-22T01:12:25.648Z,18.47
2019-02-22T01:14:52.439Z,19.90
2019-02-22T01:17:19.260Z,18.47
2019-02-22T01:19:46.044Z,18.27
2019-02-22T01:22:12.918Z,19.30
2019-02-22T01:24:39.784Z,17.63
2019-02-22T01:27:06.289Z,17.47
2019-02-22T01:29:32.858Z,17.10
2019-02-22T01:31:59.659Z,19.40
2019-02-22T01:34:26.229Z,19.83
2019-02-22T01:36:54.653Z,20.63
2019-02-22T01:39:21.670Z,18.07
2019-02-22T01:41:48.521Z,20.33
2019-02-22T01:44:20.108Z,19.30
2019-02-22T01:46:46.650Z,19.30
2019-02-22T01:49:13.506Z,18.93
2019-02-22T01:51:40.036Z,20.67
2019-02-22T01:54:06.755Z,17.80
2019-02-22T01:56:33.180Z,19.63
2019-02-22T01:58:59.867Z,18.90
2019-02-22T02:01:26.372Z,19.37
2019-02-22T02:03:53.208Z,17.03
2019-02-22T02:06:19.835Z,17.37
2019-02-22T02:08:46.345Z,21.23
2019-02-22T02:11:12.884Z,21.57
2019-02-22T02:13:39.335Z,22.37
2019-02-22T02:16:05.889Z,21.60
2019-02-22T02:18:33.400Z,21.10
2019-02-22T02:20:59.915Z,22.50
2019-02-22T02:23:26.444Z,20.77
2019-02-22T02:25:53.228Z,21.87
2019-02-22T02:28:19.772Z,23.17
2019-02-22T02:30:46.394Z,21.57
2019-02-22T02:33:13.188Z,23.37
2019-02-22T02:39:23.841Z,23.37
2019-02-22T02:41:51.700Z,23.43
2019-02-22T02:44:18.413Z,24.20
2019-02-22T02:46:45.225Z,24.60
2019-02-22T02:49:12.063Z,24.57
2019-02-22T02:51:39.796Z,23.10
2019-02-22T02:54:06.292Z,24.37
2019-02-22T02:56:33.054Z,23.50
2019-02-22T02:58:59.467Z,24.40
2019-02-22T03:01:25.890Z,22.57
2019-02-22T03:03:52.446Z,22.50
2019-02-22T03:06:21.176Z,22.87
2019-02-22T03:08:47.735Z,23.43
2019-02-22T03:11:20.855Z,22.93
2019-02-22T03:13:42.830Z,23.40
2019-02-22T03:16:09.221Z,22.50
2019-02-22T03:18:35.619Z,23.83
2019-02-22T03:21:03.011Z,22.70
2019-02-22T03:23:29.677Z,23.07
2019-02-22T03:25:56.357Z,22.20
2019-02-22T03:28:22.842Z,24.80
2019-02-22T03:30:49.616Z,21.80
2019-02-22T03:33:17.371Z,23.40
2019-02-22T03:35:44.122Z,22.97
2019-02-22T03:38:10.894Z,23.10
2019-02-22T03:40:37.674Z,23.60
2019-02-22T03:43:04.108Z,22.60
2019-02-22T03:45:30.877Z,23.10
2019-02-22T03:47:57.677Z,22.97
2019-02-22T03:50:24.055Z,25.57
2019-02-22T03:53:08.788Z,22.63
2019-02-22T03:55:35.272Z,22.23
2019-02-22T03:58:02.166Z,24.37
2019-02-22T04:00:29.627Z,23.27
2019-02-22T04:02:56.045Z,21.10
2019-02-22T04:05:22.439Z,23.20
2019-02-22T04:07:49.091Z,24.93
2019-02-22T04:10:15.596Z,24.50
2019-02-22T04:12:42.460Z,21.23
2019-02-22T04:15:08.999Z,21.27
2019-02-22T04:17:35.490Z,23.70
2019-02-22T04:20:02.586Z,24.80
2019-02-22T04:22:29.079Z,28.93
2019-02-22T04:24:55.854Z,30.80
2019-02-22T04:27:22.351Z,28.70
2019-02-22T04:29:48.824Z,27.80
2019-02-22T04:32:15.338Z,23.20
2019-02-22T04:34:42.134Z,25.70
2019-02-22T04:37:08.618Z,27.33
2019-02-22T04:39:35.366Z,28.03
2019-02-22T04:42:02.750Z,21.97
2019-02-22T04:44:29.164Z,25.33
2019-02-22T04:46:55.677Z,30.20
2019-02-22T04:49:22.255Z,25.67
2019-02-22T04:51:48.934Z,27.23
2019-02-22T04:54:16.509Z,31.13
2019-02-22T04:56:43.184Z,22.73
2019-02-22T04:59:09.675Z,28.30
2019-02-22T05:01:36.089Z,23.77
2019-02-22T05:04:02.578Z,23.87
2019-02-22T05:06:28.982Z,33.13
2019-02-22T05:08:55.474Z,21.83
2019-02-22T05:11:21.876Z,25.80
2019-02-22T05:13:48.630Z,28.97
2019-02-22T05:16:15.080Z,25.40
2019-02-22T05:18:41.543Z,30.60
2019-02-22T05:21:08.014Z,27.40
2019-02-22T05:23:34.746Z,21.03
2019-02-22T05:26:01.158Z,25.73
2019-02-22T05:28:27.946Z,26.77
2019-02-22T05:30:54.562Z,28.60
2019-02-22T05:33:22.089Z,31.47
2019-02-22T05:35:48.621Z,22.60
2019-02-22T05:38:15.357Z,32.10
2019-02-22T05:40:41.896Z,30.80
2019-02-22T05:43:09.286Z,29.30
2019-02-22T05:45:36.023Z,29.93
2019-02-22T05:48:02.786Z,26.10
2019-02-22T05:50:29.396Z,28.13
2019-02-22T05:52:56.205Z,31.27
2019-02-22T05:55:22.699Z,24.70
2019-02-22T05:57:49.366Z,24.50
2019-02-22T06:00:16.726Z,28.90
2019-02-22T06:02:43.217Z,34.17
2019-02-22T06:05:09.785Z,28.37
2019-02-22T06:07:36.174Z,28.00
2019-02-22T06:10:05.087Z,25.93
2019-02-22T06:12:34.615Z,24.97
2019-02-22T06:15:00.376Z,25.70
2019-02-22T06:17:26.890Z,29.70
2019-02-22T06:19:53.495Z,32.17
2019-02-22T06:22:28.952Z,31.50
2019-02-22T06:24:48.639Z,25.80
2019-02-22T06:27:15.152Z,27.60
2019-02-22T06:29:42.737Z,28.23
2019-02-22T06:32:09.231Z,32.87
2019-02-22T06:34:36.719Z,31.97
2019-02-22T06:37:03.530Z,33.00
2019-02-22T06:39:30.048Z,26.47
2019-02-22T06:41:56.797Z,33.60
2019-02-22T06:44:23.501Z,30.97
2019-02-22T06:46:50.134Z,30.80
2019-02-22T06:49:16.873Z,29.80
2019-02-22T06:51:43.615Z,22.53
2019-02-22T06:54:10.048Z,25.40
2019-02-22T06:56:37.653Z,25.47
2019-02-22T06:59:04.463Z,31.80
2019-02-22T07:01:31.139Z,35.20
2019-02-22T07:03:57.736Z,34.10
2019-02-22T07:06:24.498Z,29.03
2019-02-22T07:08:51.489Z,30.27
2019-02-22T07:11:19.889Z,32.50
2019-02-22T07:13:46.666Z,33.30
2019-02-22T07:16:13.474Z,26.80
2019-02-22T07:18:40.200Z,27.93
2019-02-22T07:21:06.882Z,36.37
2019-02-22T07:23:33.373Z,34.77
2019-02-22T07:25:59.775Z,24.50
2019-02-22T07:28:26.282Z,32.30
2019-02-22T07:30:52.797Z,31.10
2019-02-22T07:33:19.197Z,30.67
2019-02-22T07:35:46.005Z,34.57
2019-02-22T07:38:12.497Z,32.20
2019-02-22T07:40:40.223Z,33.93
2019-02-22T07:43:08.235Z,32.57
2019-02-22T07:45:35.170Z,30.97
2019-02-22T07:48:01.705Z,32.63
2019-02-22T07:50:28.476Z,29.93
2019-02-22T07:52:55.238Z,27.47
2019-02-22T07:55:21.648Z,28.53
2019-02-22T07:57:48.295Z,31.53
2019-02-22T08:00:15.189Z,30.73
2019-02-22T08:02:41.689Z,29.97
2019-02-22T08:05:10.226Z,33.10
2019-02-22T08:07:37.006Z,35.50
2019-02-22T08:10:04.352Z,32.37
2019-02-22T08:12:30.960Z,35.03
2019-02-22T08:14:57.473Z,32.50
2019-02-22T08:17:24.371Z,32.63
2019-02-22T08:19:51.071Z,30.23
2019-02-22T08:22:17.452Z,34.13
2019-02-22T08:24:43.849Z,34.67
2019-02-22T08:27:10.257Z,29.33
2019-02-22T08:29:38.338Z,29.83
2019-02-22T08:32:04.914Z,31.87
2019-02-22T08:34:31.316Z,28.73
2019-02-22T08:36:57.925Z,30.03
2019-02-22T08:39:24.565Z,29.00
2019-02-22T08:41:51.073Z,29.67
2019-02-22T08:44:17.475Z,29.27
2019-02-22T08:46:44.914Z,26.63
2019-02-22T08:49:11.653Z,25.23
2019-02-22T08:51:38.403Z,26.40
2019-02-22T08:54:04.969Z,25.57
2019-02-22T08:56:31.721Z,25.63
2019-02-22T08:58:58.456Z,23.13
2019-02-22T09:01:25.258Z,25.53
2019-02-22T09:03:51.745Z,24.77
2019-02-22T09:06:18.523Z,24.33
2019-02-22T09:08:44.941Z,23.10
2019-02-22T09:11:11.718Z,24.33
2019-02-22T09:13:43.610Z,24.93
2019-02-22T09:16:08.130Z,23.53
2019-02-22T09:18:34.914Z,22.13
2019-02-22T09:21:02.323Z,23.83
2019-02-22T09:23:28.813Z,23.70
2019-02-22T09:25:55.214Z,23.63
2019-02-22T09:28:21.884Z,21.57
2019-02-22T09:30:48.671Z,21.57
2019-02-22T09:33:15.180Z,21.97
2019-02-22T09:35:41.597Z,21.13
2019-02-22T09:38:08.008Z,19.50
2019-02-22T09:40:34.833Z,19.30
2019-02-22T09:43:01.575Z,20.43
2019-02-22T09:45:28.083Z,20.77
2019-02-22T09:47:54.914Z,19.57
2019-02-22T09:50:21.675Z,20.50
2019-02-22T09:52:48.122Z,18.57
2019-02-22T09:55:14.613Z,20.67
2019-02-22T09:57:41.139Z,18.43
2019-02-22T10:00:13.638Z,18.07
2019-02-22T10:02:40.323Z,17.40
2019-02-22T10:05:08.850Z,16.63
2019-02-22T10:07:35.539Z,16.00
2019-02-22T10:10:06.763Z,14.70
2019-02-22T10:12:33.169Z,14.90
2019-02-22T10:14:59.829Z,13.77
2019-02-22T10:17:26.711Z,13.07
2019-02-22T10:19:53.646Z,13.80
2019-02-22T10:22:20.405Z,13.43
2019-02-22T10:24:47.062Z,12.70
2019-02-22T10:27:13.576Z,12.80
2019-02-22T10:29:40.091Z,12.07
2019-02-22T10:32:07.766Z,12.43
2019-02-22T10:34:34.295Z,13.70
2019-02-22T10:37:00.817Z,13.00
2019-02-22T10:39:28.325Z,13.43
2019-02-22T10:41:54.782Z,12.27
2019-02-22T10:44:21.556Z,11.23
2019-02-22T10:46:47.981Z,11.57
2019-02-22T10:49:14.467Z,11.47
2019-02-22T10:51:41.371Z,11.27
2019-02-22T10:54:07.874Z,10.07
2019-02-22T10:56:34.537Z,11.47
2019-02-22T10:59:02.291Z,11.93
2019-02-22T11:01:28.798Z,9.60
2019-02-22T11:03:55.346Z,10.20
2019-02-22T11:06:22.022Z,10.40
2019-02-22T11:08:48.512Z,11.23
2019-02-22T11:11:15.174Z,12.57
2019-02-22T11:13:41.607Z,10.90
2019-02-22T11:16:08.496Z,10.03
2019-02-22T11:18:34.923Z,8.77
2019-02-22T11:21:01.529Z,9.50
2019-02-22T11:23:29.013Z,9.57
2019-02-22T11:25:56.545Z,9.30
2019-02-22T11:28:22.942Z,9.77
2019-02-22T11:30:50.457Z,9.53
2019-02-22T11:33:17.214Z,9.83
2019-02-22T11:35:43.881Z,8.70
2019-02-22T11:38:10.642Z,9.23
2019-02-22T11:40:37.093Z,8.67
2019-02-22T11:43:03.730Z,8.97
2019-02-22T11:45:31.438Z,8.00
2019-02-22T11:48:08.418Z,7.93
2019-02-22T11:50:26.123Z,9.57
2019-02-22T11:52:52.518Z,8.77
2019-02-22T11:55:19.111Z,8.63
2019-02-22T11:57:45.707Z,7.40
2019-02-22T12:00:15.893Z,7.30
2019-02-22T12:02:45.109Z,6.90
2019-02-22T12:05:12.438Z,7.07
2019-02-22T12:07:39.043Z,7.27
2019-02-22T12:10:07.062Z,7.43
2019-02-22T12:12:33.775Z,7.77
2019-02-22T12:15:00.495Z,7.10
2019-02-22T12:17:27.095Z,7.23
2019-02-22T12:19:54.581Z,7.43
2019-02-22T12:22:20.996Z,6.57
2019-02-22T12:24:47.471Z,6.57
2019-02-22T12:27:14.267Z,6.20
2019-02-22T12:29:40.810Z,6.37
2019-02-22T12:32:07.296Z,6.10
2019-02-22T12:34:33.962Z,5.73
2019-02-22T12:37:00.761Z,6.03
2019-02-22T12:39:27.539Z,5.77
2019-02-22T12:41:53.982Z,5.77
2019-02-22T12:44:21.463Z,6.20
2019-02-22T12:46:48.184Z,5.77
2019-02-22T12:49:14.962Z,6.20
2019-02-22T12:51:41.448Z,5.27
2019-02-22T12:54:07.977Z,6.13
2019-02-22T12:59:03.131Z,6.53
2019-02-22T13:01:29.526Z,6.17
2019-02-22T13:03:56.093Z,5.93
2019-02-22T13:06:22.860Z,5.83
2019-02-22T13:08:49.608Z,5.63
2019-02-22T13:11:16.396Z,4.80
2019-02-22T13:13:42.896Z,5.17
2019-02-22T13:16:09.690Z,4.67
2019-02-22T13:18:36.194Z,4.23
2019-02-22T13:21:03.866Z,3.90
2019-02-22T13:23:30.345Z,4.70
2019-02-22T13:25:57.187Z,3.97
2019-02-22T13:28:23.714Z,4.10
2019-02-22T13:30:50.164Z,3.80
2019-02-22T13:33:16.646Z,3.50
2019-02-22T13:35:44.327Z,4.70
2019-02-22T13:38:10.708Z,4.03
2019-02-22T13:40:38.488Z,4.23
2019-02-22T13:43:05.445Z,3.90
2019-02-22T13:45:32.119Z,4.33
2019-02-22T13:47:58.683Z,4.00
2019-02-22T13:50:25.239Z,3.80
2019-02-22T13:52:51.635Z,3.33
2019-02-22T13:55:18.113Z,4.80
2019-02-22T13:57:44.905Z,5.53
2019-02-22T14:00:14.791Z,5.57
2019-02-22T14:02:41.535Z,3.87
2019-02-22T14:05:08.518Z,3.80
2019-02-22T14:07:35.115Z,3.50
2019-02-22T14:10:01.520Z,4.07
2019-02-22T14:12:28.310Z,4.17
2019-02-22T14:14:54.719Z,4.47
2019-02-22T14:17:21.393Z,3.47
2019-02-22T14:19:48.056Z,2.93
2019-02-22T14:22:14.572Z,3.97
2019-02-22T14:24:41.371Z,4.00
2019-02-22T14:27:07.887Z,3.57
2019-02-22T14:29:34.820Z,3.97
2019-02-22T14:32:01.261Z,3.40
2019-02-22T14:34:28.019Z,3.60
2019-02-22T14:36:54.433Z,3.77
2019-02-22T14:39:22.022Z,3.60
2019-02-22T14:41:48.794Z,3.23
2019-02-22T14:44:15.214Z,3.20
2019-02-22T14:46:41.979Z,3.10
2019-02-22T14:49:08.751Z,7.00
2019-02-22T14:51:35.161Z,6.13
2019-02-22T14:54:02.682Z,3.93
2019-02-22T14:56:29.179Z,3.93
2019-02-22T14:58:55.575Z,3.57
2019-02-22T15:01:22.070Z,3.30
2019-02-22T15:03:48.484Z,3.53
2019-02-22T15:06:15.005Z,4.70
2019-02-22T15:08:41.610Z,4.40
2019-02-22T15:11:08.276Z,4.20
2019-02-22T15:13:34.671Z,4.53
2019-02-22T15:16:05.627Z,3.13
2019-02-22T15:18:32.175Z,4.23
2019-02-22T15:20:58.577Z,3.70
2019-02-22T15:23:24.974Z,4.20
2019-02-22T15:25:51.683Z,3.53
2019-02-22T15:28:18.230Z,3.80
2019-02-22T15:30:45.382Z,3.87
2019-02-22T15:33:12.530Z,3.63
2019-02-22T15:35:39.099Z,3.40
2019-02-22T15:38:05.644Z,4.10
2019-02-22T15:40:32.254Z,3.63
2019-02-22T15:42:58.681Z,3.40
2019-02-22T15:45:25.095Z,4.03
2019-02-22T15:47:52.015Z,4.33
2019-02-22T15:50:18.784Z,4.00
2019-02-22T15:52:46.493Z,3.70
2019-02-22T15:55:14.443Z,3.47
2019-02-22T15:57:41.081Z,4.13
2019-02-22T16:00:23.222Z,4.57
2019-02-22T16:02:49.821Z,3.83
2019-02-22T16:05:25.274Z,4.73
2019-02-22T16:07:51.775Z,4.50
2019-02-22T16:10:18.467Z,4.67
2019-02-22T16:12:46.164Z,4.30
2019-02-22T16:15:14.645Z,3.77
2019-02-22T16:17:41.091Z,3.53
2019-02-22T16:20:07.762Z,4.07
2019-02-22T16:22:34.411Z,4.10
2019-02-22T16:25:00.913Z,3.90
2019-02-22T16:27:31.062Z,4.13
2019-02-22T16:29:57.518Z,4.17
2019-02-22T16:32:26.810Z,4.40
2019-02-22T16:34:54.623Z,4.47
2019-02-22T16:37:21.393Z,3.83
2019-02-22T16:39:48.004Z,4.00
2019-02-22T16:42:14.788Z,4.30
2019-02-22T16:44:41.443Z,4.60
2019-02-22T16:47:07.968Z,4.30
2019-02-22T16:49:35.468Z,4.90
2019-02-22T16:52:02.219Z,4.40
2019-02-22T16:54:28.887Z,4.07
2019-02-22T16:56:55.429Z,4.63
2019-02-22T16:59:21.865Z,4.70
2019-02-22T17:01:48.671Z,5.03
2019-02-22T17:04:15.276Z,4.50
2019-02-22T17:06:43.235Z,3.90
2019-02-22T17:09:09.997Z,4.90
2019-02-22T17:11:37.004Z,4.83
2019-02-22T17:14:03.533Z,4.40
2019-02-22T17:16:30.030Z,7.50
2019-02-22T17:18:56.464Z,9.30
2019-02-22T17:21:22.875Z,11.57
2019-02-22T17:23:49.381Z,9.83
2019-02-22T17:26:16.164Z,6.17
2019-02-22T17:28:42.798Z,5.80
2019-02-22T17:31:09.311Z,4.30
2019-02-22T17:33:35.814Z,4.07
2019-02-22T17:36:02.222Z,3.80
2019-02-22T17:38:28.918Z,3.27
2019-02-22T17:40:55.586Z,3.87
2019-02-22T17:43:23.256Z,2.90
2019-02-22T17:45:50.674Z,3.57
2019-02-22T17:48:18.127Z,3.30
2019-02-22T17:50:44.986Z,4.13
2019-02-22T17:53:11.397Z,4.63
2019-02-22T17:55:38.035Z,3.60
2019-02-22T17:58:04.915Z,3.83
2019-02-22T18:00:31.691Z,4.10
2019-02-22T18:02:58.639Z,3.37
2019-02-22T18:05:25.430Z,3.00
2019-02-22T18:07:52.132Z,3.57
2019-02-22T18:10:19.033Z,3.37
2019-02-22T18:12:45.979Z,3.87
2019-02-22T18:15:14.349Z,4.87
2019-02-22T18:17:43.045Z,3.03
2019-02-22T18:20:09.768Z,3.37
2019-02-22T18:22:36.258Z,3.30
2019-02-22T18:25:05.627Z,2.90
2019-02-22T18:27:32.208Z,2.83
2019-02-22T18:29:58.783Z,2.43
2019-02-22T18:32:25.191Z,2.43
2019-02-22T18:34:51.631Z,2.60
2019-02-22T18:37:18.050Z,2.60
2019-02-22T18:39:44.491Z,4.20
2019-02-22T18:42:11.021Z,3.83
2019-02-22T18:44:37.506Z,4.50
2019-02-22T18:47:04.966Z,1.97
2019-02-22T18:49:31.924Z,4.33
2019-02-22T18:51:58.690Z,2.97
2019-02-22T18:54:27.544Z,3.77
2019-02-22T18:56:54.444Z,3.53
2019-02-22T18:59:20.951Z,3.73
2019-02-22T19:01:47.490Z,5.17
2019-02-22T19:04:15.165Z,5.57
2019-02-22T19:06:41.602Z,6.23
2019-02-22T19:09:08.313Z,5.00
2019-02-22T19:11:35.302Z,4.70
2019-02-22T19:14:01.885Z,3.50
2019-02-22T19:16:28.301Z,3.70
2019-02-22T19:18:54.808Z,2.57
2019-02-22T19:21:22.199Z,3.63
2019-02-22T19:23:48.872Z,2.30
2019-02-22T19:26:15.574Z,2.70
2019-02-22T19:28:42.362Z,4.30
2019-02-22T19:31:08.855Z,6.73
2019-02-22T19:33:35.259Z,9.03
2019-02-22T19:36:01.687Z,6.87
2019-02-22T19:38:28.390Z,7.93
2019-02-22T19:40:54.898Z,8.83
2019-02-22T19:43:21.312Z,11.17
2019-02-22T19:45:48.072Z,11.27
2019-02-22T19:48:14.817Z,9.30
2019-02-22T19:50:41.898Z,7.73
2019-02-22T19:53:09.436Z,9.10
2019-02-22T19:55:35.929Z,13.90
2019-02-22T19:58:02.335Z,13.13
2019-02-22T20:00:28.728Z,10.53
2019-02-22T20:02:55.509Z,10.80
2019-02-22T20:05:22.398Z,7.00
2019-02-22T20:07:48.914Z,6.03
2019-02-22T20:10:21.365Z,6.47
2019-02-22T20:12:49.877Z,5.37
2019-02-22T20:15:16.923Z,5.47
2019-02-22T20:17:53.241Z,6.00
2019-02-22T20:20:16.428Z,5.30
2019-02-22T20:22:43.298Z,5.57
2019-02-22T20:25:09.912Z,5.73
2019-02-22T20:27:36.492Z,5.97
2019-02-22T20:30:06.505Z,6.00
2019-02-22T20:32:33.484Z,5.60
2019-02-22T20:34:59.970Z,4.70
2019-02-22T20:37:26.667Z,5.03
2019-02-22T20:39:53.170Z,5.23
2019-02-22T20:42:19.926Z,5.07
2019-02-22T20:44:46.487Z,5.20
2019-02-22T20:47:13.010Z,5.53
2019-02-22T20:49:39.484Z,7.10
2019-02-22T20:52:06.249Z,7.90
2019-02-22T20:54:32.653Z,6.57
2019-02-22T20:56:59.204Z,5.10
2019-02-22T20:59:25.977Z,5.30
2019-02-22T21:01:52.791Z,5.97
2019-02-22T21:04:19.420Z,4.87
2019-02-22T21:06:46.076Z,5.97
2019-02-22T21:09:12.766Z,5.43
2019-02-22T21:11:39.271Z,5.17
2019-02-22T21:14:05.946Z,4.63
2019-02-22T21:16:32.643Z,5.57
2019-02-22T21:18:59.474Z,5.27
2019-02-22T21:21:25.892Z,6.40
2019-02-22T21:23:52.293Z,6.60
2019-02-22T21:26:19.082Z,4.87
2019-02-22T21:28:45.529Z,5.13
2019-02-22T21:31:12.139Z,5.53
2019-02-22T21:33:38.606Z,5.20
2019-02-22T21:36:05.030Z,5.40
2019-02-22T21:38:31.510Z,5.20
2019-02-22T21:40:57.948Z,5.03
2019-02-22T21:43:24.722Z,5.17
2019-02-22T21:45:51.424Z,4.80
2019-02-22T21:48:27.166Z,5.83
2019-02-22T21:50:46.923Z,6.13
2019-02-22T21:53:13.524Z,5.03
2019-02-22T21:55:40.448Z,5.33
2019-02-22T21:58:06.851Z,4.80
2019-02-22T22:00:33.267Z,4.87
2019-02-22T22:03:00.133Z,4.87
2019-02-22T22:05:26.554Z,4.60
2019-02-22T22:07:53.179Z,5.13
2019-02-22T22:10:19.601Z,4.77
2019-02-22T22:12:46.499Z,4.57
2019-02-22T22:15:13.915Z,5.23
2019-02-22T22:17:40.719Z,4.57
2019-02-22T22:20:08.419Z,4.57
2019-02-22T22:22:35.075Z,4.80
2019-02-22T22:25:03.144Z,5.80
2019-02-22T22:27:29.832Z,4.90
2019-02-22T22:29:57.164Z,4.90
2019-02-22T22:32:23.618Z,4.50
2019-02-22T22:34:50.269Z,4.67
2019-02-22T22:37:16.754Z,5.70
2019-02-22T22:39:43.288Z,4.63
2019-02-22T22:42:09.964Z,4.27
2019-02-22T22:44:36.624Z,5.37
2019-02-22T22:47:03.030Z,5.23
2019-02-22T22:49:29.696Z,5.47
2019-02-22T22:51:56.235Z,5.03
2019-02-22T22:54:23.925Z,5.10
2019-02-22T22:56:50.603Z,4.33
2019-02-22T22:59:18.004Z,4.70
2019-02-22T23:01:45.032Z,5.00
2019-02-22T23:04:12.784Z,5.40
2019-02-22T23:06:39.708Z,6.43
2019-02-22T23:09:08.303Z,5.87
2019-02-22T23:11:37.791Z,5.70
2019-02-22T23:14:04.479Z,5.27
2019-02-22T23:16:31.150Z,5.97
2019-02-22T23:19:01.798Z,6.13
2019-02-22T23:21:26.056Z,6.30
2019-02-22T23:23:52.987Z,5.93
2019-02-22T23:26:19.399Z,6.07
2019-02-22T23:28:46.064Z,6.17
2019-02-22T23:31:13.663Z,5.33
2019-02-22T23:33:41.655Z,5.37
2019-02-22T23:36:08.134Z,6.30
2019-02-22T23:38:34.574Z,5.70
2019-02-22T23:41:01.270Z,6.07
2019-02-22T23:43:27.774Z,5.47
2019-02-22T23:45:55.166Z,5.90
2019-02-22T23:48:21.572Z,6.60
2019-02-22T23:50:48.066Z,5.63
2019-02-22T23:53:14.582Z,5.30
2019-02-22T23:55:40.990Z,6.47
2019-02-22T23:58:07.666Z,6.07
